sensor_id;sensor_type;location;lat;lon;timestamp;P1;durP1;ratioP1;P2;durP2;ratioP2
47758;SDS011;33520;55.122;35.582;2023-10-13T00:01:09;8.35;;;2.70;;
47758;SDS011;33520;55.122;35.582;2023-10-13T00:03:37;10.50;;;2.30;;
47758;SDS011;33520;55.122;35.582;2023-10-13T00:06:05;6.75;;;2.17;;
47758;SDS011;33520;55.122;35.582;2023-10-13T00:08:32;10.32;;;2.30;;
47758;SDS011;33520;55.122;35.582;2023-10-13T00:10:58;8.40;;;2.33;;
47758;SDS011;33520;55.122;35.582;2023-10-13T00:13:28;6.15;;;1.98;;
47758;SDS011;33520;55.122;35.582;2023-10-13T00:15:59;7.10;;;1.98;;
47758;SDS011;33520;55.122;35.582;2023-10-13T00:20:59;9.27;;;1.92;;
47758;SDS011;33520;55.122;35.582;2023-10-13T00:23:26;8.82;;;2.03;;
47758;SDS011;33520;55.122;35.582;2023-10-13T00:25:52;6.65;;;2.22;;
47758;SDS011;33520;55.122;35.582;2023-10-13T00:28:25;5.55;;;2.00;;
47758;SDS011;33520;55.122;35.582;2023-10-13T00:31:01;7.88;;;2.15;;
47758;SDS011;33520;55.122;35.582;2023-10-13T00:33:36;6.43;;;1.88;;
47758;SDS011;33520;55.122;35.582;2023-10-13T00:36:04;5.57;;;1.50;;
47758;SDS011;33520;55.122;35.582;2023-10-13T00:38:33;5.95;;;1.92;;
47758;SDS011;33520;55.122;35.582;2023-10-13T00:41:00;6.18;;;1.80;;
47758;SDS011;33520;55.122;35.582;2023-10-13T00:43:44;8.90;;;2.13;;
47758;SDS011;33520;55.122;35.582;2023-10-13T00:46:11;9.43;;;2.10;;
47758;SDS011;33520;55.122;35.582;2023-10-13T00:48:42;7.70;;;2.17;;
47758;SDS011;33520;55.122;35.582;2023-10-13T00:51:10;7.22;;;1.70;;
47758;SDS011;33520;55.122;35.582;2023-10-13T00:53:56;8.90;;;1.92;;
47758;SDS011;33520;55.122;35.582;2023-10-13T00:56:24;4.50;;;1.40;;
47758;SDS011;33520;55.122;35.582;2023-10-13T00:58:54;6.20;;;1.45;;
47758;SDS011;33520;55.122;35.582;2023-10-13T01:01:23;5.93;;;1.52;;
47758;SDS011;33520;55.122;35.582;2023-10-13T01:03:58;10.60;;;1.52;;
47758;SDS011;33520;55.122;35.582;2023-10-13T01:06:26;9.90;;;2.22;;
47758;SDS011;33520;55.122;35.582;2023-10-13T01:09:00;10.32;;;2.40;;
47758;SDS011;33520;55.122;35.582;2023-10-13T01:11:43;7.72;;;1.77;;
47758;SDS011;33520;55.122;35.582;2023-10-13T01:14:18;10.02;;;1.67;;
47758;SDS011;33520;55.122;35.582;2023-10-13T01:16:47;9.23;;;2.35;;
47758;SDS011;33520;55.122;35.582;2023-10-13T01:19:18;5.57;;;1.85;;
47758;SDS011;33520;55.122;35.582;2023-10-13T01:21:51;8.93;;;1.90;;
47758;SDS011;33520;55.122;35.582;2023-10-13T01:24:29;7.70;;;1.67;;
47758;SDS011;33520;55.122;35.582;2023-10-13T01:27:03;8.65;;;1.75;;
47758;SDS011;33520;55.122;35.582;2023-10-13T01:29:46;9.48;;;2.28;;
47758;SDS011;33520;55.122;35.582;2023-10-13T01:32:14;7.82;;;2.25;;
47758;SDS011;33520;55.122;35.582;2023-10-13T01:34:42;5.10;;;1.60;;
47758;SDS011;33520;55.122;35.582;2023-10-13T01:37:11;8.23;;;1.77;;
47758;SDS011;33520;55.122;35.582;2023-10-13T01:39:38;7.60;;;2.00;;
47758;SDS011;33520;55.122;35.582;2023-10-13T01:42:04;7.18;;;1.50;;
47758;SDS011;33520;55.122;35.582;2023-10-13T01:44:31;5.85;;;2.30;;
47758;SDS011;33520;55.122;35.582;2023-10-13T01:47:01;11.65;;;2.88;;
47758;SDS011;33520;55.122;35.582;2023-10-13T01:49:34;6.53;;;2.10;;
47758;SDS011;33520;55.122;35.582;2023-10-13T01:52:08;8.15;;;2.42;;
47758;SDS011;33520;55.122;35.582;2023-10-13T01:54:37;5.53;;;1.60;;
47758;SDS011;33520;55.122;35.582;2023-10-13T01:57:07;8.55;;;2.58;;
47758;SDS011;33520;55.122;35.582;2023-10-13T01:59:34;9.52;;;2.58;;
47758;SDS011;33520;55.122;35.582;2023-10-13T02:02:10;4.82;;;1.65;;
47758;SDS011;33520;55.122;35.582;2023-10-13T02:04:42;9.55;;;1.30;;
47758;SDS011;33520;55.122;35.582;2023-10-13T02:07:22;7.30;;;1.73;;
47758;SDS011;33520;55.122;35.582;2023-10-13T02:09:56;9.63;;;1.77;;
47758;SDS011;33520;55.122;35.582;2023-10-13T02:12:22;4.68;;;1.40;;
47758;SDS011;33520;55.122;35.582;2023-10-13T02:14:54;5.57;;;1.60;;
47758;SDS011;33520;55.122;35.582;2023-10-13T02:17:20;7.40;;;2.10;;
47758;SDS011;33520;55.122;35.582;2023-10-13T02:19:52;5.00;;;1.50;;
47758;SDS011;33520;55.122;35.582;2023-10-13T02:22:19;10.25;;;1.98;;
47758;SDS011;33520;55.122;35.582;2023-10-13T02:24:57;8.57;;;1.45;;
47758;SDS011;33520;55.122;35.582;2023-10-13T02:27:30;7.50;;;1.98;;
47758;SDS011;33520;55.122;35.582;2023-10-13T02:30:07;11.75;;;2.65;;
47758;SDS011;33520;55.122;35.582;2023-10-13T02:32:41;5.65;;;1.83;;
47758;SDS011;33520;55.122;35.582;2023-10-13T02:35:09;6.00;;;1.70;;
47758;SDS011;33520;55.122;35.582;2023-10-13T02:37:41;4.63;;;1.40;;
47758;SDS011;33520;55.122;35.582;2023-10-13T02:40:20;5.95;;;1.60;;
47758;SDS011;33520;55.122;35.582;2023-10-13T02:42:49;13.93;;;2.75;;
47758;SDS011;33520;55.122;35.582;2023-10-13T02:45:16;7.75;;;1.67;;
47758;SDS011;33520;55.122;35.582;2023-10-13T02:47:47;8.40;;;1.75;;
47758;SDS011;33520;55.122;35.582;2023-10-13T02:50:33;3.42;;;1.58;;
47758;SDS011;33520;55.122;35.582;2023-10-13T02:52:59;5.93;;;2.22;;
47758;SDS011;33520;55.122;35.582;2023-10-13T02:55:26;7.72;;;1.30;;
47758;SDS011;33520;55.122;35.582;2023-10-13T02:57:53;10.80;;;1.40;;
47758;SDS011;33520;55.122;35.582;2023-10-13T03:00:21;4.97;;;1.40;;
47758;SDS011;33520;55.122;35.582;2023-10-13T03:02:49;6.32;;;1.95;;
47758;SDS011;33520;55.122;35.582;2023-10-13T03:05:24;7.05;;;1.35;;
47758;SDS011;33520;55.122;35.582;2023-10-13T03:07:54;5.32;;;1.60;;
47758;SDS011;33520;55.122;35.582;2023-10-13T03:10:22;7.20;;;1.80;;
47758;SDS011;33520;55.122;35.582;2023-10-13T03:12:54;6.05;;;1.60;;
47758;SDS011;33520;55.122;35.582;2023-10-13T03:15:21;8.52;;;1.27;;
47758;SDS011;33520;55.122;35.582;2023-10-13T03:17:56;8.63;;;1.85;;
47758;SDS011;33520;55.122;35.582;2023-10-13T03:20:26;6.35;;;1.55;;
47758;SDS011;33520;55.122;35.582;2023-10-13T03:22:59;5.25;;;1.08;;
47758;SDS011;33520;55.122;35.582;2023-10-13T03:25:26;7.18;;;1.90;;
47758;SDS011;33520;55.122;35.582;2023-10-13T03:27:56;5.35;;;1.25;;
47758;SDS011;33520;55.122;35.582;2023-10-13T03:30:22;8.07;;;1.80;;
47758;SDS011;33520;55.122;35.582;2023-10-13T03:32:56;7.75;;;1.33;;
47758;SDS011;33520;55.122;35.582;2023-10-13T03:35:23;6.85;;;2.05;;
47758;SDS011;33520;55.122;35.582;2023-10-13T03:37:54;4.85;;;1.45;;
47758;SDS011;33520;55.122;35.582;2023-10-13T03:40:21;10.35;;;2.05;;
47758;SDS011;33520;55.122;35.582;2023-10-13T03:42:48;6.00;;;2.03;;
47758;SDS011;33520;55.122;35.582;2023-10-13T03:45:24;10.80;;;1.77;;
47758;SDS011;33520;55.122;35.582;2023-10-13T03:47:51;10.00;;;1.92;;
47758;SDS011;33520;55.122;35.582;2023-10-13T03:50:18;7.90;;;1.50;;
47758;SDS011;33520;55.122;35.582;2023-10-13T03:52:58;12.32;;;2.17;;
47758;SDS011;33520;55.122;35.582;2023-10-13T03:55:25;7.88;;;1.45;;
47758;SDS011;33520;55.122;35.582;2023-10-13T03:57:58;5.18;;;1.27;;
47758;SDS011;33520;55.122;35.582;2023-10-13T04:00:26;5.95;;;1.45;;
47758;SDS011;33520;55.122;35.582;2023-10-13T04:02:53;6.30;;;1.55;;
47758;SDS011;33520;55.122;35.582;2023-10-13T04:05:32;6.82;;;1.60;;
47758;SDS011;33520;55.122;35.582;2023-10-13T04:08:02;8.95;;;1.88;;
47758;SDS011;33520;55.122;35.582;2023-10-13T04:10:51;4.90;;;1.60;;
47758;SDS011;33520;55.122;35.582;2023-10-13T04:13:18;7.03;;;1.40;;
47758;SDS011;33520;55.122;35.582;2023-10-13T04:16:03;12.05;;;1.63;;
47758;SDS011;33520;55.122;35.582;2023-10-13T04:18:53;6.30;;;1.77;;
47758;SDS011;33520;55.122;35.582;2023-10-13T04:21:21;9.02;;;1.70;;
47758;SDS011;33520;55.122;35.582;2023-10-13T04:24:09;6.13;;;1.52;;
47758;SDS011;33520;55.122;35.582;2023-10-13T04:27:08;6.70;;;1.20;;
47758;SDS011;33520;55.122;35.582;2023-10-13T04:29:55;8.18;;;1.20;;
47758;SDS011;33520;55.122;35.582;2023-10-13T04:32:34;3.53;;;1.30;;
47758;SDS011;33520;55.122;35.582;2023-10-13T04:35:31;6.38;;;1.38;;
47758;SDS011;33520;55.122;35.582;2023-10-13T04:38:01;9.05;;;1.70;;
47758;SDS011;33520;55.122;35.582;2023-10-13T04:40:40;7.25;;;1.10;;
47758;SDS011;33520;55.122;35.582;2023-10-13T04:43:24;7.25;;;1.30;;
47758;SDS011;33520;55.122;35.582;2023-10-13T04:46:20;4.88;;;1.67;;
47758;SDS011;33520;55.122;35.582;2023-10-13T04:49:05;7.53;;;1.85;;
47758;SDS011;33520;55.122;35.582;2023-10-13T04:51:59;6.85;;;1.90;;
47758;SDS011;33520;55.122;35.582;2023-10-13T04:54:48;5.68;;;1.90;;
47758;SDS011;33520;55.122;35.582;2023-10-13T04:57:18;5.15;;;1.38;;
47758;SDS011;33520;55.122;35.582;2023-10-13T04:59:50;8.02;;;1.38;;
47758;SDS011;33520;55.122;35.582;2023-10-13T05:02:48;5.97;;;1.42;;
47758;SDS011;33520;55.122;35.582;2023-10-13T05:05:44;6.00;;;1.80;;
47758;SDS011;33520;55.122;35.582;2023-10-13T05:08:28;5.18;;;1.80;;
47758;SDS011;33520;55.122;35.582;2023-10-13T05:11:13;4.68;;;1.10;;
47758;SDS011;33520;55.122;35.582;2023-10-13T05:13:57;6.40;;;1.48;;
47758;SDS011;33520;55.122;35.582;2023-10-13T05:16:42;9.48;;;1.30;;
47758;SDS011;33520;55.122;35.582;2023-10-13T05:19:26;4.75;;;1.20;;
47758;SDS011;33520;55.122;35.582;2023-10-13T05:22:11;5.78;;;1.15;;
47758;SDS011;33520;55.122;35.582;2023-10-13T05:24:56;4.70;;;0.90;;
47758;SDS011;33520;55.122;35.582;2023-10-13T05:27:42;3.95;;;1.20;;
47758;SDS011;33520;55.122;35.582;2023-10-13T05:30:27;4.78;;;1.23;;
47758;SDS011;33520;55.122;35.582;2023-10-13T05:33:11;11.57;;;1.27;;
47758;SDS011;33520;55.122;35.582;2023-10-13T05:35:57;4.15;;;1.17;;
47758;SDS011;33520;55.122;35.582;2023-10-13T05:38:41;5.65;;;1.00;;
47758;SDS011;33520;55.122;35.582;2023-10-13T05:41:25;4.90;;;1.05;;
47758;SDS011;33520;55.122;35.582;2023-10-13T05:44:10;5.93;;;1.23;;
47758;SDS011;33520;55.122;35.582;2023-10-13T05:46:55;7.20;;;1.30;;
47758;SDS011;33520;55.122;35.582;2023-10-13T05:49:47;5.55;;;1.30;;
47758;SDS011;33520;55.122;35.582;2023-10-13T05:52:19;4.88;;;0.95;;
47758;SDS011;33520;55.122;35.582;2023-10-13T05:54:46;4.57;;;1.17;;
47758;SDS011;33520;55.122;35.582;2023-10-13T05:57:31;5.55;;;1.20;;
47758;SDS011;33520;55.122;35.582;2023-10-13T06:00:16;4.65;;;1.17;;
47758;SDS011;33520;55.122;35.582;2023-10-13T06:03:01;3.70;;;1.10;;
47758;SDS011;33520;55.122;35.582;2023-10-13T06:05:47;2.83;;;0.80;;
47758;SDS011;33520;55.122;35.582;2023-10-13T06:08:32;6.65;;;1.40;;
47758;SDS011;33520;55.122;35.582;2023-10-13T06:11:17;3.80;;;1.45;;
47758;SDS011;33520;55.122;35.582;2023-10-13T06:14:12;5.88;;;1.23;;
47758;SDS011;33520;55.122;35.582;2023-10-13T06:16:57;3.97;;;1.17;;
47758;SDS011;33520;55.122;35.582;2023-10-13T06:19:42;3.70;;;0.90;;
47758;SDS011;33520;55.122;35.582;2023-10-13T06:22:27;3.70;;;1.05;;
47758;SDS011;33520;55.122;35.582;2023-10-13T06:25:12;8.65;;;1.23;;
47758;SDS011;33520;55.122;35.582;2023-10-13T06:27:57;2.28;;;1.15;;
47758;SDS011;33520;55.122;35.582;2023-10-13T06:30:42;6.68;;;1.58;;
47758;SDS011;33520;55.122;35.582;2023-10-13T06:33:22;8.77;;;1.30;;
47758;SDS011;33520;55.122;35.582;2023-10-13T06:35:57;3.28;;;1.00;;
47758;SDS011;33520;55.122;35.582;2023-10-13T06:38:24;4.75;;;1.10;;
47758;SDS011;33520;55.122;35.582;2023-10-13T06:40:50;4.25;;;1.23;;
47758;SDS011;33520;55.122;35.582;2023-10-13T06:43:18;5.32;;;1.15;;
47758;SDS011;33520;55.122;35.582;2023-10-13T06:45:47;4.43;;;1.73;;
47758;SDS011;33520;55.122;35.582;2023-10-13T06:48:26;3.17;;;0.80;;
47758;SDS011;33520;55.122;35.582;2023-10-13T06:50:53;4.80;;;0.90;;
47758;SDS011;33520;55.122;35.582;2023-10-13T06:53:21;4.35;;;1.40;;
47758;SDS011;33520;55.122;35.582;2023-10-13T06:55:49;3.58;;;0.90;;
47758;SDS011;33520;55.122;35.582;2023-10-13T06:58:18;5.07;;;1.27;;
47758;SDS011;33520;55.122;35.582;2023-10-13T07:00:50;4.82;;;0.70;;
47758;SDS011;33520;55.122;35.582;2023-10-13T07:03:21;3.20;;;0.85;;
47758;SDS011;33520;55.122;35.582;2023-10-13T07:05:48;2.20;;;0.50;;
47758;SDS011;33520;55.122;35.582;2023-10-13T07:08:15;4.03;;;0.82;;
47758;SDS011;33520;55.122;35.582;2023-10-13T07:10:47;2.08;;;0.73;;
47758;SDS011;33520;55.122;35.582;2023-10-13T07:13:39;3.85;;;0.70;;
47758;SDS011;33520;55.122;35.582;2023-10-13T07:16:05;6.15;;;0.73;;
47758;SDS011;33520;55.122;35.582;2023-10-13T07:18:38;3.58;;;0.85;;
47758;SDS011;33520;55.122;35.582;2023-10-13T07:21:19;5.60;;;1.10;;
47758;SDS011;33520;55.122;35.582;2023-10-13T07:24:05;4.20;;;0.90;;
47758;SDS011;33520;55.122;35.582;2023-10-13T07:26:37;3.72;;;0.95;;
47758;SDS011;33520;55.122;35.582;2023-10-13T07:29:11;4.97;;;0.90;;
47758;SDS011;33520;55.122;35.582;2023-10-13T07:31:37;4.68;;;0.65;;
47758;SDS011;33520;55.122;35.582;2023-10-13T07:34:06;4.03;;;0.80;;
47758;SDS011;33520;55.122;35.582;2023-10-13T07:36:41;6.43;;;1.02;;
47758;SDS011;33520;55.122;35.582;2023-10-13T07:39:08;1.77;;;0.60;;
47758;SDS011;33520;55.122;35.582;2023-10-13T07:41:51;5.03;;;0.73;;
47758;SDS011;33520;55.122;35.582;2023-10-13T07:44:29;2.75;;;0.90;;
47758;SDS011;33520;55.122;35.582;2023-10-13T07:47:02;2.28;;;0.60;;
47758;SDS011;33520;55.122;35.582;2023-10-13T07:49:35;4.00;;;0.80;;
47758;SDS011;33520;55.122;35.582;2023-10-13T07:52:10;5.00;;;0.90;;
47758;SDS011;33520;55.122;35.582;2023-10-13T07:54:46;2.50;;;0.60;;
47758;SDS011;33520;55.122;35.582;2023-10-13T07:57:16;5.88;;;0.90;;
47758;SDS011;33520;55.122;35.582;2023-10-13T07:59:42;3.55;;;0.80;;
47758;SDS011;33520;55.122;35.582;2023-10-13T08:02:17;3.03;;;0.60;;
47758;SDS011;33520;55.122;35.582;2023-10-13T08:05:02;7.15;;;0.77;;
47758;SDS011;33520;55.122;35.582;2023-10-13T08:07:30;2.15;;;0.55;;
47758;SDS011;33520;55.122;35.582;2023-10-13T08:09:57;3.25;;;0.80;;
47758;SDS011;33520;55.122;35.582;2023-10-13T08:12:25;4.85;;;0.52;;
47758;SDS011;33520;55.122;35.582;2023-10-13T08:14:52;4.43;;;0.73;;
47758;SDS011;33520;55.122;35.582;2023-10-13T08:17:37;2.38;;;0.93;;
47758;SDS011;33520;55.122;35.582;2023-10-13T08:20:09;3.38;;;0.80;;
47758;SDS011;33520;55.122;35.582;2023-10-13T08:22:42;4.45;;;0.80;;
47758;SDS011;33520;55.122;35.582;2023-10-13T08:25:14;3.42;;;0.60;;
47758;SDS011;33520;55.122;35.582;2023-10-13T08:27:46;5.40;;;0.73;;
47758;SDS011;33520;55.122;35.582;2023-10-13T08:30:35;2.05;;;0.65;;
47758;SDS011;33520;55.122;35.582;2023-10-13T08:33:17;3.20;;;0.57;;
47758;SDS011;33520;55.122;35.582;2023-10-13T08:38:29;1.48;;;0.50;;
47758;SDS011;33520;55.122;35.582;2023-10-13T08:40:57;2.03;;;0.88;;
47758;SDS011;33520;55.122;35.582;2023-10-13T08:43:39;4.53;;;0.90;;
47758;SDS011;33520;55.122;35.582;2023-10-13T08:46:16;3.95;;;0.85;;
47758;SDS011;33520;55.122;35.582;2023-10-13T08:48:57;3.67;;;0.60;;
47758;SDS011;33520;55.122;35.582;2023-10-13T08:51:41;4.22;;;1.00;;
47758;SDS011;33520;55.122;35.582;2023-10-13T08:54:32;3.42;;;0.65;;
47758;SDS011;33520;55.122;35.582;2023-10-13T08:57:05;4.95;;;0.75;;
47758;SDS011;33520;55.122;35.582;2023-10-13T08:59:48;4.25;;;1.52;;
47758;SDS011;33520;55.122;35.582;2023-10-13T09:02:21;1.55;;;0.40;;
47758;SDS011;33520;55.122;35.582;2023-10-13T09:05:09;1.70;;;0.60;;
47758;SDS011;33520;55.122;35.582;2023-10-13T09:07:56;3.28;;;1.05;;
47758;SDS011;33520;55.122;35.582;2023-10-13T09:10:33;3.30;;;0.52;;
47758;SDS011;33520;55.122;35.582;2023-10-13T09:13:10;1.70;;;0.45;;
47758;SDS011;33520;55.122;35.582;2023-10-13T09:15:46;2.35;;;0.60;;
47758;SDS011;33520;55.122;35.582;2023-10-13T09:18:28;3.85;;;0.93;;
47758;SDS011;33520;55.122;35.582;2023-10-13T09:21:15;2.35;;;0.70;;
47758;SDS011;33520;55.122;35.582;2023-10-13T09:24:00;1.87;;;0.50;;
47758;SDS011;33520;55.122;35.582;2023-10-13T09:27:02;1.70;;;0.57;;
47758;SDS011;33520;55.122;35.582;2023-10-13T09:29:31;4.82;;;1.00;;
47758;SDS011;33520;55.122;35.582;2023-10-13T09:32:04;2.63;;;0.80;;
47758;SDS011;33520;55.122;35.582;2023-10-13T09:34:37;2.65;;;0.55;;
47758;SDS011;33520;55.122;35.582;2023-10-13T09:37:06;3.13;;;0.60;;
47758;SDS011;33520;55.122;35.582;2023-10-13T09:39:35;4.50;;;0.75;;
47758;SDS011;33520;55.122;35.582;2023-10-13T09:42:12;1.75;;;0.40;;
47758;SDS011;33520;55.122;35.582;2023-10-13T09:44:38;2.00;;;0.70;;
47758;SDS011;33520;55.122;35.582;2023-10-13T09:47:07;2.97;;;0.70;;
47758;SDS011;33520;55.122;35.582;2023-10-13T09:49:45;1.75;;;0.57;;
47758;SDS011;33520;55.122;35.582;2023-10-13T09:52:15;1.83;;;0.50;;
47758;SDS011;33520;55.122;35.582;2023-10-13T09:54:49;3.33;;;0.80;;
47758;SDS011;33520;55.122;35.582;2023-10-13T09:57:26;2.15;;;0.57;;
47758;SDS011;33520;55.122;35.582;2023-10-13T10:00:02;1.35;;;0.40;;
47758;SDS011;33520;55.122;35.582;2023-10-13T10:03:00;3.70;;;0.82;;
47758;SDS011;33520;55.122;35.582;2023-10-13T10:05:56;2.38;;;0.57;;
47758;SDS011;33520;55.122;35.582;2023-10-13T10:08:29;1.60;;;0.57;;
47758;SDS011;33520;55.122;35.582;2023-10-13T10:17:04;6.68;;;0.70;;
47758;SDS011;33520;55.122;35.582;2023-10-13T10:19:47;2.83;;;0.73;;
47758;SDS011;33520;55.122;35.582;2023-10-13T10:22:25;2.92;;;0.40;;
47758;SDS011;33520;55.122;35.582;2023-10-13T10:24:59;0.85;;;0.30;;
47758;SDS011;33520;55.122;35.582;2023-10-13T10:27:29;1.70;;;0.40;;
47758;SDS011;33520;55.122;35.582;2023-10-13T10:29:57;2.35;;;0.40;;
47758;SDS011;33520;55.122;35.582;2023-10-13T10:32:34;2.00;;;0.50;;
47758;SDS011;33520;55.122;35.582;2023-10-13T10:35:10;1.58;;;0.40;;
47758;SDS011;33520;55.122;35.582;2023-10-13T10:37:46;2.35;;;0.70;;
47758;SDS011;33520;55.122;35.582;2023-10-13T10:40:16;1.73;;;0.40;;
47758;SDS011;33520;55.122;35.582;2023-10-13T10:43:06;2.97;;;0.60;;
47758;SDS011;33520;55.122;35.582;2023-10-13T10:45:35;1.92;;;0.52;;
47758;SDS011;33520;55.122;35.582;2023-10-13T10:48:02;2.08;;;0.50;;
47758;SDS011;33520;55.122;35.582;2023-10-13T10:50:42;1.58;;;0.47;;
47758;SDS011;33520;55.122;35.582;2023-10-13T10:53:20;3.55;;;0.52;;
47758;SDS011;33520;55.122;35.582;2023-10-13T10:56:12;3.15;;;0.50;;
47758;SDS011;33520;55.122;35.582;2023-10-13T10:58:58;6.03;;;0.65;;
47758;SDS011;33520;55.122;35.582;2023-10-13T11:01:29;3.28;;;0.50;;
47758;SDS011;33520;55.122;35.582;2023-10-13T11:04:13;3.75;;;0.60;;
47758;SDS011;33520;55.122;35.582;2023-10-13T11:06:50;2.33;;;0.40;;
47758;SDS011;33520;55.122;35.582;2023-10-13T11:09:28;2.53;;;0.45;;
47758;SDS011;33520;55.122;35.582;2023-10-13T11:14:43;1.83;;;0.60;;
47758;SDS011;33520;55.122;35.582;2023-10-13T11:17:19;3.75;;;0.70;;
47758;SDS011;33520;55.122;35.582;2023-10-13T11:20:10;4.35;;;0.60;;
47758;SDS011;33520;55.122;35.582;2023-10-13T11:22:45;3.33;;;0.73;;
47758;SDS011;33520;55.122;35.582;2023-10-13T11:25:20;0.52;;;0.30;;
47758;SDS011;33520;55.122;35.582;2023-10-13T11:27:58;0.40;;;0.30;;
47758;SDS011;33520;55.122;35.582;2023-10-13T11:30:46;2.55;;;1.25;;
47758;SDS011;33520;55.122;35.582;2023-10-13T11:33:17;2.05;;;0.40;;
47758;SDS011;33520;55.122;35.582;2023-10-13T11:35:50;2.13;;;0.47;;
47758;SDS011;33520;55.122;35.582;2023-10-13T11:41:00;3.00;;;0.52;;
47758;SDS011;33520;55.122;35.582;2023-10-13T11:43:32;1.52;;;0.50;;
47758;SDS011;33520;55.122;35.582;2023-10-13T11:46:13;4.68;;;0.70;;
47758;SDS011;33520;55.122;35.582;2023-10-13T11:48:45;4.75;;;0.50;;
47758;SDS011;33520;55.122;35.582;2023-10-13T11:51:12;3.90;;;0.50;;
47758;SDS011;33520;55.122;35.582;2023-10-13T11:53:58;3.08;;;0.70;;
47758;SDS011;33520;55.122;35.582;2023-10-13T11:56:24;3.15;;;0.60;;
47758;SDS011;33520;55.122;35.582;2023-10-13T11:58:51;3.83;;;0.77;;
47758;SDS011;33520;55.122;35.582;2023-10-13T12:03:44;3.13;;;0.70;;
47758;SDS011;33520;55.122;35.582;2023-10-13T12:06:31;1.83;;;0.47;;
47758;SDS011;33520;55.122;35.582;2023-10-13T12:09:12;0.95;;;0.50;;
47758;SDS011;33520;55.122;35.582;2023-10-13T12:11:44;3.10;;;0.77;;
47758;SDS011;33520;55.122;35.582;2023-10-13T12:14:12;2.83;;;0.43;;
47758;SDS011;33520;55.122;35.582;2023-10-13T12:16:55;1.20;;;0.60;;
47758;SDS011;33520;55.122;35.582;2023-10-13T12:19:28;2.78;;;0.73;;
47758;SDS011;33520;55.122;35.582;2023-10-13T12:24:22;3.90;;;0.50;;
47758;SDS011;33520;55.122;35.582;2023-10-13T12:26:57;1.50;;;0.47;;
47758;SDS011;33520;55.122;35.582;2023-10-13T12:29:23;1.02;;;0.35;;
47758;SDS011;33520;55.122;35.582;2023-10-13T12:31:57;2.28;;;0.40;;
47758;SDS011;33520;55.122;35.582;2023-10-13T12:34:46;2.17;;;0.77;;
47758;SDS011;33520;55.122;35.582;2023-10-13T12:37:26;2.65;;;0.80;;
47758;SDS011;33520;55.122;35.582;2023-10-13T12:40:02;3.00;;;0.88;;
47758;SDS011;33520;55.122;35.582;2023-10-13T12:42:51;1.27;;;0.50;;
47758;SDS011;33520;55.122;35.582;2023-10-13T12:45:42;3.58;;;0.50;;
47758;SDS011;33520;55.122;35.582;2023-10-13T12:48:27;3.38;;;0.32;;
47758;SDS011;33520;55.122;35.582;2023-10-13T12:51:13;1.50;;;0.57;;
47758;SDS011;33520;55.122;35.582;2023-10-13T12:53:52;4.00;;;0.68;;
47758;SDS011;33520;55.122;35.582;2023-10-13T12:56:20;4.10;;;0.95;;
47758;SDS011;33520;55.122;35.582;2023-10-13T12:58:54;6.72;;;0.70;;
47758;SDS011;33520;55.122;35.582;2023-10-13T13:01:21;2.13;;;0.45;;
47758;SDS011;33520;55.122;35.582;2023-10-13T13:03:50;3.30;;;0.60;;
47758;SDS011;33520;55.122;35.582;2023-10-13T13:06:22;1.40;;;0.70;;
47758;SDS011;33520;55.122;35.582;2023-10-13T13:08:55;2.55;;;0.50;;
47758;SDS011;33520;55.122;35.582;2023-10-13T13:11:23;3.25;;;0.60;;
47758;SDS011;33520;55.122;35.582;2023-10-13T13:13:49;2.28;;;0.77;;
47758;SDS011;33520;55.122;35.582;2023-10-13T13:18:52;1.95;;;0.65;;
47758;SDS011;33520;55.122;35.582;2023-10-13T13:21:21;2.10;;;0.60;;
47758;SDS011;33520;55.122;35.582;2023-10-13T13:23:51;4.97;;;0.80;;
47758;SDS011;33520;55.122;35.582;2023-10-13T13:26:20;2.80;;;0.50;;
47758;SDS011;33520;55.122;35.582;2023-10-13T13:28:48;2.75;;;0.55;;
47758;SDS011;33520;55.122;35.582;2023-10-13T13:31:18;2.97;;;0.52;;
47758;SDS011;33520;55.122;35.582;2023-10-13T13:33:44;4.15;;;0.70;;
47758;SDS011;33520;55.122;35.582;2023-10-13T13:36:11;1.75;;;0.57;;
47758;SDS011;33520;55.122;35.582;2023-10-13T13:38:41;3.65;;;0.70;;
47758;SDS011;33520;55.122;35.582;2023-10-13T13:41:15;1.90;;;0.88;;
47758;SDS011;33520;55.122;35.582;2023-10-13T13:43:49;2.22;;;0.73;;
47758;SDS011;33520;55.122;35.582;2023-10-13T13:46:16;1.65;;;0.60;;
47758;SDS011;33520;55.122;35.582;2023-10-13T13:48:43;2.13;;;0.55;;
47758;SDS011;33520;55.122;35.582;2023-10-13T13:51:13;3.33;;;0.55;;
47758;SDS011;33520;55.122;35.582;2023-10-13T13:53:52;5.97;;;0.90;;
47758;SDS011;33520;55.122;35.582;2023-10-13T13:56:19;0.90;;;0.52;;
47758;SDS011;33520;55.122;35.582;2023-10-13T13:58:46;1.85;;;0.50;;
47758;SDS011;33520;55.122;35.582;2023-10-13T14:01:19;3.05;;;0.70;;
47758;SDS011;33520;55.122;35.582;2023-10-13T14:03:51;4.95;;;1.67;;
47758;SDS011;33520;55.122;35.582;2023-10-13T14:06:23;5.07;;;0.70;;
47758;SDS011;33520;55.122;35.582;2023-10-13T14:08:51;3.60;;;0.90;;
47758;SDS011;33520;55.122;35.582;2023-10-13T14:11:26;4.85;;;0.65;;
47758;SDS011;33520;55.122;35.582;2023-10-13T14:14:14;2.67;;;1.10;;
47758;SDS011;33520;55.122;35.582;2023-10-13T14:16:51;6.40;;;0.80;;
47758;SDS011;33520;55.122;35.582;2023-10-13T14:19:19;1.73;;;0.43;;
47758;SDS011;33520;55.122;35.582;2023-10-13T14:21:58;4.87;;;0.77;;
47758;SDS011;33520;55.122;35.582;2023-10-13T14:24:25;3.08;;;0.98;;
47758;SDS011;33520;55.122;35.582;2023-10-13T14:26:59;2.63;;;0.90;;
47758;SDS011;33520;55.122;35.582;2023-10-13T14:29:44;4.30;;;0.80;;
47758;SDS011;33520;55.122;35.582;2023-10-13T14:32:13;3.20;;;0.77;;
47758;SDS011;33520;55.122;35.582;2023-10-13T14:34:41;9.07;;;1.17;;
47758;SDS011;33520;55.122;35.582;2023-10-13T14:37:08;11.13;;;2.15;;
47758;SDS011;33520;55.122;35.582;2023-10-13T14:39:39;7.32;;;2.33;;
47758;SDS011;33520;55.122;35.582;2023-10-13T14:42:05;8.57;;;2.90;;
47758;SDS011;33520;55.122;35.582;2023-10-13T14:44:33;8.43;;;3.35;;
47758;SDS011;33520;55.122;35.582;2023-10-13T14:47:03;8.35;;;3.60;;
47758;SDS011;33520;55.122;35.582;2023-10-13T14:49:34;8.88;;;3.95;;
47758;SDS011;33520;55.122;35.582;2023-10-13T14:54:27;9.88;;;3.75;;
47758;SDS011;33520;55.122;35.582;2023-10-13T14:57:02;8.13;;;2.60;;
47758;SDS011;33520;55.122;35.582;2023-10-13T14:59:29;4.75;;;2.22;;
47758;SDS011;33520;55.122;35.582;2023-10-13T15:02:04;10.13;;;2.72;;
47758;SDS011;33520;55.122;35.582;2023-10-13T15:07:00;4.78;;;1.17;;
47758;SDS011;33520;55.122;35.582;2023-10-13T15:09:29;5.28;;;1.13;;
47758;SDS011;33520;55.122;35.582;2023-10-13T15:14:22;4.03;;;0.90;;
47758;SDS011;33520;55.122;35.582;2023-10-13T15:16:51;2.67;;;1.42;;
47758;SDS011;33520;55.122;35.582;2023-10-13T15:19:26;4.50;;;1.10;;
47758;SDS011;33520;55.122;35.582;2023-10-13T15:21:55;3.15;;;0.90;;
47758;SDS011;33520;55.122;35.582;2023-10-13T15:24:21;7.65;;;1.00;;
47758;SDS011;33520;55.122;35.582;2023-10-13T15:26:51;3.47;;;1.30;;
47758;SDS011;33520;55.122;35.582;2023-10-13T15:29:22;6.05;;;1.02;;
47758;SDS011;33520;55.122;35.582;2023-10-13T15:31:52;4.63;;;1.10;;
47758;SDS011;33520;55.122;35.582;2023-10-13T15:34:24;3.63;;;0.93;;
47758;SDS011;33520;55.122;35.582;2023-10-13T15:36:52;3.88;;;1.20;;
47758;SDS011;33520;55.122;35.582;2023-10-13T15:39:21;3.58;;;1.00;;
47758;SDS011;33520;55.122;35.582;2023-10-13T15:41:51;1.70;;;0.95;;
47758;SDS011;33520;55.122;35.582;2023-10-13T15:44:19;6.03;;;1.67;;
47758;SDS011;33520;55.122;35.582;2023-10-13T15:46:46;2.97;;;1.17;;
47758;SDS011;33520;55.122;35.582;2023-10-13T15:49:15;5.50;;;1.30;;